Time;durP1;ratioP1;P1;durP2;ratioP2;P2;SDS_P1;SDS_P2;PMS_P1;PMS_P2;Temp;Humidity;BMP_temperature;BMP_pressure;BME280_temperature;BME280_humidity;BME280_pressure;Samples;Min_cycle;Max_cycle;Signal;HPM_P1;HPM_P2
2024/03/16 00:01:39;;;;;;;41.70;12.70;;;11.00;99.90;;;;;;5103089;28;20020;-70
2024/03/16 00:04:04;;;;;;;41.03;13.75;;;11.00;99.90;;;;;;5102906;28;20019;-70
2024/03/16 00:06:30;;;;;;;38.33;12.95;;;11.00;99.90;;;;;;5103105;28;20060;-69
2024/03/16 00:08:56;;;;;;;37.25;12.95;;;11.10;99.90;;;;;;5101446;28;20089;-70
2024/03/16 00:11:22;;;;;;;28.75;11.52;;;11.00;99.90;;;;;;5102646;28;20472;-71
2024/03/16 00:13:48;;;;;;;39.70;13.57;;;11.10;99.90;;;;;;5100337;28;20038;-70
2024/03/16 00:16:13;;;;;;;40.65;13.52;;;11.00;99.90;;;;;;5101389;28;20047;-70
2024/03/16 00:18:39;;;;;;;42.75;14.25;;;11.00;99.90;;;;;;5102454;28;20037;-71
2024/03/16 00:21:04;;;;;;;31.30;12.73;;;11.00;99.90;;;;;;5102829;28;20027;-71
2024/03/16 00:23:30;;;;;;;39.40;14.15;;;11.10;99.90;;;;;;5102690;28;20020;-70
2024/03/16 00:25:56;;;;;;;36.58;14.63;;;11.10;99.90;;;;;;5102417;28;20084;-71
2024/03/16 00:28:21;;;;;;;34.70;13.05;;;11.10;99.90;;;;;;5102713;28;20024;-73
2024/03/16 00:30:48;;;;;;;37.50;15.10;;;11.10;99.90;;;;;;5101177;28;20049;-72
2024/03/16 00:33:14;;;;;;;34.67;14.60;;;11.10;99.90;;;;;;5102267;28;20031;-69
2024/03/16 00:35:40;;;;;;;36.60;14.75;;;11.10;99.90;;;;;;5102656;28;20032;-71
2024/03/16 00:38:05;;;;;;;31.58;13.65;;;11.10;99.90;;;;;;5102319;28;20039;-70
2024/03/16 00:40:31;;;;;;;36.63;13.52;;;11.10;99.90;;;;;;5102255;28;20036;-71
2024/03/16 00:42:57;;;;;;;42.55;15.38;;;11.10;99.90;;;;;;5102399;28;20056;-72
2024/03/16 00:45:22;;;;;;;38.97;15.52;;;11.10;99.90;;;;;;5102665;28;20023;-71
2024/03/16 00:47:48;;;;;;;44.10;14.95;;;11.10;99.90;;;;;;5102107;28;20024;-73
2024/03/16 00:50:14;;;;;;;43.47;14.73;;;11.10;99.90;;;;;;5102262;28;20102;-72
2024/03/16 00:52:40;;;;;;;37.33;14.82;;;11.10;99.90;;;;;;5102075;28;20050;-71
2024/03/16 00:55:06;;;;;;;34.15;13.20;;;11.10;99.90;;;;;;5100734;28;20020;-71
2024/03/16 00:57:31;;;;;;;39.70;16.27;;;11.10;99.90;;;;;;5102367;28;20031;-72
2024/03/16 00:59:57;;;;;;;40.97;14.80;;;11.00;99.90;;;;;;5100847;28;20042;-74
2024/03/16 01:02:23;;;;;;;40.35;14.50;;;11.10;99.90;;;;;;5102115;28;20047;-70
2024/03/16 01:04:48;;;;;;;34.47;13.85;;;11.10;99.90;;;;;;5103209;28;20039;-71
2024/03/16 01:07:15;;;;;;;33.15;14.75;;;11.10;99.90;;;;;;5104933;28;20024;-71
2024/03/16 01:09:40;;;;;;;36.72;13.50;;;11.00;99.90;;;;;;5105910;28;20036;-72
2024/03/16 01:12:07;;;;;;;33.60;13.15;;;11.20;99.90;;;;;;5106274;28;20036;-72
2024/03/16 01:14:33;;;;;;;38.80;13.45;;;11.10;99.90;;;;;;5105859;28;20446;-71
2024/03/16 01:16:59;;;;;;;31.83;12.45;;;11.10;99.90;;;;;;5106105;28;20093;-73
2024/03/16 01:19:25;;;;;;;44.15;14.00;;;11.00;99.90;;;;;;5106267;28;20024;-72
2024/03/16 01:21:51;;;;;;;37.30;11.73;;;11.10;99.90;;;;;;5105883;28;20020;-73
2024/03/16 01:24:17;;;;;;;36.22;12.65;;;11.10;99.90;;;;;;5106145;28;20096;-71
2024/03/16 01:26:43;;;;;;;34.53;12.60;;;11.10;99.90;;;;;;5104630;28;20024;-71
2024/03/16 01:29:13;;;;;;;34.80;12.38;;;11.10;99.90;;;;;;5105628;28;20012;-72
2024/03/16 01:31:40;;;;;;;38.88;12.18;;;11.10;99.90;;;;;;5106041;28;20020;-72
2024/03/16 01:34:06;;;;;;;36.85;12.07;;;11.10;99.90;;;;;;5104494;28;20061;-71
2024/03/16 01:36:32;;;;;;;37.38;12.70;;;11.10;99.90;;;;;;5104469;28;20020;-71
2024/03/16 01:39:12;;;;;;;35.58;11.73;;;11.20;99.90;;;;;;5104480;28;20028;-76
2024/03/16 01:41:38;;;;;;;35.17;12.50;;;11.10;99.90;;;;;;5103601;28;20024;-72
2024/03/16 01:44:12;;;;;;;40.65;11.98;;;11.10;99.90;;;;;;5102583;28;20066;-74
2024/03/16 01:46:41;;;;;;;34.38;11.95;;;11.00;99.90;;;;;;5102990;28;20097;-72
2024/03/16 01:49:08;;;;;;;37.17;11.70;;;11.10;99.90;;;;;;5104087;28;20028;-72
2024/03/16 01:51:38;;;;;;;38.53;11.10;;;11.10;99.90;;;;;;5103304;28;20020;-73
2024/03/16 01:54:05;;;;;;;29.05;10.93;;;11.10;99.90;;;;;;5103984;28;20064;-71
2024/03/16 01:56:31;;;;;;;32.83;11.23;;;11.10;99.90;;;;;;5105092;28;20031;-72
2024/03/16 01:58:56;;;;;;;30.40;11.85;;;11.10;99.90;;;;;;5103593;28;20020;-73
2024/03/16 02:01:23;;;;;;;34.17;11.45;;;11.10;99.90;;;;;;5103791;28;20026;-73
2024/03/16 02:03:49;;;;;;;28.92;11.43;;;11.10;99.90;;;;;;5102895;28;20529;-73
2024/03/16 02:06:15;;;;;;;33.40;11.95;;;11.10;99.90;;;;;;5103575;28;20098;-72
2024/03/16 02:08:41;;;;;;;38.75;12.98;;;11.10;99.90;;;;;;5103099;28;20040;-74
2024/03/16 02:11:06;;;;;;;36.75;11.98;;;11.10;99.90;;;;;;5104396;28;20112;-73
2024/03/16 02:13:32;;;;;;;35.42;11.18;;;11.10;99.90;;;;;;5103513;28;20393;-71
2024/03/16 02:15:57;;;;;;;38.47;11.35;;;11.10;99.90;;;;;;5102764;28;20048;-74
2024/03/16 02:18:23;;;;;;;29.73;11.85;;;11.10;99.90;;;;;;5103449;28;20056;-74
2024/03/16 02:20:49;;;;;;;36.15;12.15;;;11.20;99.90;;;;;;5103695;28;20024;-70
2024/03/16 02:23:17;;;;;;;34.47;12.32;;;11.10;99.90;;;;;;5102702;28;20035;-73
2024/03/16 02:25:43;;;;;;;43.80;12.93;;;11.10;99.90;;;;;;5101386;28;20021;-73
2024/03/16 02:28:09;;;;;;;40.15;12.70;;;11.10;99.90;;;;;;5099915;28;20490;-74
2024/03/16 02:30:36;;;;;;;34.28;11.55;;;11.20;99.90;;;;;;5102285;28;20013;-72
2024/03/16 02:33:05;;;;;;;35.58;12.48;;;11.10;99.90;;;;;;5103276;28;20136;-71
2024/03/16 02:35:32;;;;;;;27.60;10.75;;;11.20;99.90;;;;;;5102502;28;20039;-74
2024/03/16 02:37:58;;;;;;;27.45;9.60;;;11.20;99.90;;;;;;5101940;28;20122;-74
2024/03/16 02:40:23;;;;;;;33.15;12.18;;;11.10;99.90;;;;;;5103166;28;20028;-71
2024/03/16 02:42:49;;;;;;;30.40;11.32;;;11.20;99.90;;;;;;5101717;28;20030;-72
2024/03/16 02:45:14;;;;;;;36.03;11.25;;;11.10;99.90;;;;;;5102645;28;20020;-72
2024/03/16 02:47:40;;;;;;;35.72;11.40;;;11.10;99.90;;;;;;5102433;28;20036;-70
2024/03/16 02:50:08;;;;;;;35.72;10.70;;;11.10;99.90;;;;;;5102333;28;20036;-72
2024/03/16 02:52:33;;;;;;;34.58;11.13;;;11.10;99.90;;;;;;5101176;28;20051;-74
2024/03/16 02:54:59;;;;;;;37.10;10.55;;;11.20;99.90;;;;;;5101442;28;20032;-72
2024/03/16 02:57:25;;;;;;;33.80;10.13;;;11.10;99.90;;;;;;5103472;28;20023;-71
2024/03/16 02:59:50;;;;;;;31.00;10.50;;;11.20;99.90;;;;;;5101598;28;20046;-73
2024/03/16 03:02:22;;;;;;;32.00;10.82;;;11.10;99.90;;;;;;5102457;28;20028;-73
2024/03/16 03:04:49;;;;;;;37.75;11.40;;;11.10;99.90;;;;;;5102099;28;20021;-75
2024/03/16 03:07:14;;;;;;;34.00;10.88;;;11.00;99.90;;;;;;5102156;28;20031;-72
2024/03/16 03:09:40;;;;;;;40.28;11.35;;;11.10;99.90;;;;;;5103498;28;20040;-74
2024/03/16 03:12:05;;;;;;;32.35;9.95;;;11.00;99.90;;;;;;5103331;28;20036;-73
2024/03/16 03:14:32;;;;;;;36.97;11.98;;;11.10;99.90;;;;;;5102101;28;20032;-74
2024/03/16 03:16:58;;;;;;;38.20;11.93;;;11.00;99.90;;;;;;5102120;28;20051;-74
2024/03/16 03:19:24;;;;;;;42.85;12.02;;;11.00;99.90;;;;;;5102041;28;20051;-72
2024/03/16 03:21:50;;;;;;;35.35;12.70;;;11.00;99.90;;;;;;5101931;28;20028;-71
2024/03/16 03:24:15;;;;;;;40.70;11.07;;;11.00;99.90;;;;;;5102017;28;20034;-74
2024/03/16 03:26:41;;;;;;;36.58;10.82;;;11.00;99.90;;;;;;5100381;28;20032;-75
2024/03/16 03:29:07;;;;;;;34.78;11.68;;;10.90;99.90;;;;;;5103151;28;20115;-72
2024/03/16 03:31:32;;;;;;;38.33;10.98;;;10.90;99.90;;;;;;5103340;28;20024;-73
2024/03/16 03:33:58;;;;;;;30.52;11.63;;;10.90;99.90;;;;;;5102195;28;20028;-75
2024/03/16 03:36:23;;;;;;;35.50;11.73;;;10.90;99.90;;;;;;5099822;28;20444;-73
2024/03/16 03:38:49;;;;;;;41.70;12.05;;;10.90;99.90;;;;;;5101527;28;20106;-72
2024/03/16 03:41:15;;;;;;;42.58;11.98;;;10.80;99.90;;;;;;5101993;28;20103;-73
2024/03/16 03:43:46;;;;;;;47.50;12.70;;;10.80;99.90;;;;;;5100768;28;20099;-72
2024/03/16 03:46:28;;;;;;;40.20;11.82;;;10.70;99.90;;;;;;5100745;28;20085;-71
2024/03/16 03:49:10;;;;;;;42.33;12.13;;;10.70;99.90;;;;;;5101343;28;20027;-72
2024/03/16 03:51:36;;;;;;;39.85;11.73;;;10.70;99.90;;;;;;5102974;28;20059;-73
2024/03/16 03:54:04;;;;;;;34.00;10.95;;;10.70;99.90;;;;;;5102731;28;20058;-73
2024/03/16 03:56:30;;;;;;;37.88;12.48;;;10.60;99.90;;;;;;5102714;28;20034;-72
2024/03/16 03:58:55;;;;;;;39.58;11.45;;;10.60;99.90;;;;;;5102816;28;20115;-72
2024/03/16 04:01:21;;;;;;;37.25;11.07;;;10.60;99.90;;;;;;5102495;28;20043;-72
2024/03/16 04:03:46;;;;;;;36.63;11.27;;;10.50;99.90;;;;;;5102673;28;20051;-72
2024/03/16 04:06:12;;;;;;;37.00;11.00;;;10.50;99.90;;;;;;5102646;28;20032;-71
2024/03/16 04:08:37;;;;;;;36.55;10.68;;;10.50;99.90;;;;;;5100734;28;20079;-71
2024/03/16 04:11:04;;;;;;;40.67;11.25;;;10.50;99.90;;;;;;5100989;28;20047;-73
2024/03/16 04:13:30;;;;;;;40.72;10.95;;;10.50;99.90;;;;;;5102377;28;20059;-74
2024/03/16 04:15:56;;;;;;;41.15;11.88;;;10.40;99.90;;;;;;5100977;28;20044;-70
2024/03/16 04:18:22;;;;;;;32.95;9.65;;;10.40;99.90;;;;;;5100989;28;20842;-73
2024/03/16 04:20:47;;;;;;;44.15;11.65;;;10.40;99.90;;;;;;5102305;28;20058;-74
2024/03/16 04:23:13;;;;;;;45.50;11.50;;;10.40;99.90;;;;;;5100586;28;20094;-71
2024/03/16 04:25:38;;;;;;;46.05;11.75;;;10.40;99.90;;;;;;5102060;28;20464;-71
2024/03/16 04:28:05;;;;;;;37.92;11.85;;;10.30;99.90;;;;;;5100812;28;20089;-72
2024/03/16 04:30:30;;;;;;;44.45;11.40;;;10.30;99.90;;;;;;5100744;28;20079;-71
2024/03/16 04:32:56;;;;;;;45.38;11.43;;;10.30;99.90;;;;;;5102140;28;20085;-76
2024/03/16 04:35:21;;;;;;;36.03;10.80;;;10.30;99.90;;;;;;5102221;28;20032;-70
2024/03/16 04:37:47;;;;;;;34.30;10.98;;;10.30;99.90;;;;;;5101642;28;20059;-70
2024/03/16 04:40:12;;;;;;;32.95;9.85;;;10.30;99.90;;;;;;5101808;28;20016;-71
2024/03/16 04:42:38;;;;;;;32.80;9.93;;;10.30;99.90;;;;;;5101430;28;20020;-72
2024/03/16 04:45:05;;;;;;;33.90;10.10;;;10.30;99.90;;;;;;5100108;28;20069;-74
2024/03/16 04:47:30;;;;;;;24.00;8.05;;;10.30;99.90;;;;;;5100668;28;20100;-74
2024/03/16 04:49:56;;;;;;;26.58;9.52;;;10.20;99.90;;;;;;5100549;28;20034;-74
2024/03/16 04:52:21;;;;;;;18.52;7.78;;;10.20;99.90;;;;;;5101269;28;20036;-70
2024/03/16 04:54:47;;;;;;;18.35;7.53;;;10.00;99.90;;;;;;5099605;28;20088;-72
2024/03/16 04:57:12;;;;;;;15.57;7.65;;;9.90;99.90;;;;;;5099809;28;20016;-72
2024/03/16 04:59:39;;;;;;;15.05;7.15;;;9.80;99.90;;;;;;5101272;28;20024;-73
2024/03/16 05:02:05;;;;;;;22.42;7.85;;;9.70;99.90;;;;;;5100326;28;21068;-74
2024/03/16 05:04:30;;;;;;;13.15;6.22;;;9.70;99.90;;;;;;5100693;28;20028;-75
2024/03/16 05:06:56;;;;;;;12.50;6.15;;;9.50;99.90;;;;;;5097849;28;20376;-72
2024/03/16 05:09:22;;;;;;;14.55;5.78;;;9.40;99.90;;;;;;5097240;28;20075;-73
2024/03/16 05:11:47;;;;;;;10.43;5.20;;;9.40;99.90;;;;;;5101104;28;20082;-76
2024/03/16 05:14:13;;;;;;;9.63;4.88;;;9.30;99.90;;;;;;5100263;28;20500;-74
2024/03/16 05:16:42;;;;;;;9.23;4.78;;;9.20;99.90;;;;;;5101509;28;20031;-71
2024/03/16 05:19:07;;;;;;;12.10;5.32;;;9.10;99.90;;;;;;5099656;28;20024;-72
2024/03/16 05:21:34;;;;;;;11.70;4.72;;;9.10;99.90;;;;;;5100303;28;20023;-72
2024/03/16 05:24:01;;;;;;;11.13;5.15;;;9.00;99.90;;;;;;5100865;28;20059;-70
2024/03/16 05:26:28;;;;;;;10.45;5.47;;;8.90;99.90;;;;;;5101684;28;20078;-72
2024/03/16 05:28:54;;;;;;;11.95;5.28;;;8.90;99.90;;;;;;5098466;28;20058;-72
2024/03/16 05:31:20;;;;;;;10.23;5.28;;;8.80;99.90;;;;;;5101248;28;20024;-74
2024/03/16 05:33:46;;;;;;;9.40;4.60;;;8.80;99.90;;;;;;5099862;28;20036;-70
2024/03/16 05:36:14;;;;;;;10.35;4.32;;;8.70;99.90;;;;;;5101416;28;20039;-71
2024/03/16 05:38:43;;;;;;;9.77;4.53;;;8.70;99.90;;;;;;5100944;28;20020;-68
2024/03/16 05:41:09;;;;;;;11.43;3.80;;;8.70;99.90;;;;;;5099817;28;20107;-70
2024/03/16 05:43:35;;;;;;;10.07;4.72;;;8.60;99.90;;;;;;5100432;28;20469;-71
2024/03/16 05:46:00;;;;;;;10.52;3.92;;;8.60;99.90;;;;;;5098747;28;20488;-71
2024/03/16 05:48:26;;;;;;;12.43;3.60;;;8.60;99.90;;;;;;5099170;28;20054;-72
2024/03/16 05:50:55;;;;;;;5.80;2.95;;;8.50;99.90;;;;;;5101296;28;21680;-72
2024/03/16 05:53:22;;;;;;;10.77;3.17;;;8.50;99.90;;;;;;5102320;28;20044;-71
2024/03/16 05:55:48;;;;;;;7.10;2.50;;;8.50;99.90;;;;;;5104968;28;20032;-71
2024/03/16 05:58:14;;;;;;;12.75;2.83;;;8.20;99.90;;;;;;5104469;28;20081;-74
2024/03/16 06:00:39;;;;;;;13.45;2.63;;;8.00;99.90;;;;;;5104073;28;20024;-72
2024/03/16 06:03:05;;;;;;;13.57;2.75;;;7.90;99.90;;;;;;5103703;28;20016;-73
2024/03/16 06:05:35;;;;;;;26.20;3.70;;;7.70;99.90;;;;;;5105206;28;20039;-74
2024/03/16 06:08:05;;;;;;;23.50;4.05;;;7.60;99.90;;;;;;5104246;28;20023;-71
2024/03/16 06:10:33;;;;;;;23.52;4.32;;;7.50;99.90;;;;;;5102771;28;20100;-71
2024/03/16 06:12:59;;;;;;;20.67;4.53;;;7.50;99.90;;;;;;5104257;28;20083;-74
2024/03/16 06:15:25;;;;;;;22.42;4.25;;;7.50;99.90;;;;;;5103357;28;20036;-71
2024/03/16 06:17:52;;;;;;;26.17;3.85;;;7.60;99.90;;;;;;5104627;28;20050;-71
2024/03/16 06:20:17;;;;;;;22.17;3.70;;;7.50;99.90;;;;;;5104487;28;20150;-71
2024/03/16 06:22:44;;;;;;;15.85;2.95;;;7.50;99.90;;;;;;5103018;28;20461;-71
2024/03/16 06:25:12;;;;;;;23.27;3.58;;;7.50;99.90;;;;;;5104170;28;20061;-72
2024/03/16 06:27:43;;;;;;;22.25;3.13;;;7.50;99.90;;;;;;5104142;28;20016;-72
2024/03/16 06:30:12;;;;;;;23.45;4.03;;;7.40;99.90;;;;;;5101505;28;20045;-70
2024/03/16 06:32:38;;;;;;;25.42;3.72;;;7.40;99.90;;;;;;5101272;28;20168;-72
2024/03/16 06:35:05;;;;;;;22.00;3.55;;;7.30;99.90;;;;;;5102824;28;20063;-73
2024/03/16 06:37:30;;;;;;;34.10;4.10;;;7.30;99.90;;;;;;5102386;28;20022;-72
2024/03/16 06:39:56;;;;;;;23.00;3.78;;;7.30;99.90;;;;;;5104356;28;20076;-72
2024/03/16 06:42:23;;;;;;;29.73;3.95;;;7.30;99.90;;;;;;5103860;28;20028;-72
2024/03/16 06:44:49;;;;;;;28.75;3.40;;;7.20;99.90;;;;;;5104029;28;20016;-73
2024/03/16 06:47:14;;;;;;;27.95;3.95;;;7.20;99.90;;;;;;5103737;28;20083;-72
2024/03/16 06:49:40;;;;;;;31.42;3.88;;;7.20;99.90;;;;;;5103971;28;20032;-74
2024/03/16 06:52:06;;;;;;;38.38;4.90;;;7.30;99.90;;;;;;5102607;28;20408;-74
2024/03/16 06:54:31;;;;;;;29.52;4.07;;;7.20;99.90;;;;;;5101811;28;20046;-72
2024/03/16 06:56:57;;;;;;;37.35;5.97;;;7.20;99.90;;;;;;5104107;28;20024;-71
2024/03/16 06:59:22;;;;;;;26.48;3.85;;;7.20;99.90;;;;;;5103526;28;20077;-73
2024/03/16 07:01:48;;;;;;;43.47;4.20;;;7.20;99.90;;;;;;5102039;28;20017;-72
2024/03/16 07:04:15;;;;;;;24.42;3.33;;;7.20;99.90;;;;;;5103534;28;20020;-73
2024/03/16 07:06:40;;;;;;;23.60;3.58;;;7.20;99.90;;;;;;5102451;28;20368;-72
2024/03/16 07:09:08;;;;;;;25.70;3.78;;;7.20;99.90;;;;;;5103047;28;20428;-71
2024/03/16 07:11:34;;;;;;;27.75;4.20;;;7.20;99.90;;;;;;5102235;28;20020;-71
2024/03/16 07:14:00;;;;;;;25.77;3.97;;;7.30;99.90;;;;;;5103569;28;20039;-72
2024/03/16 07:16:25;;;;;;;26.55;3.78;;;7.30;99.90;;;;;;5102453;28;20028;-71
2024/03/16 07:18:51;;;;;;;29.88;3.78;;;7.30;99.90;;;;;;5103319;28;20024;-71
2024/03/16 07:21:19;;;;;;;18.65;2.85;;;7.30;99.90;;;;;;5103515;28;20028;-72
2024/03/16 07:23:47;;;;;;;25.95;4.25;;;7.30;99.90;;;;;;5102862;28;20031;-70
2024/03/16 07:26:13;;;;;;;22.00;3.08;;;7.30;99.90;;;;;;5103168;28;20044;-71
2024/03/16 07:28:38;;;;;;;23.35;3.10;;;7.30;99.90;;;;;;5101903;28;20020;-70
2024/03/16 07:31:04;;;;;;;23.70;3.28;;;7.30;99.90;;;;;;5102744;28;20012;-72
2024/03/16 07:33:30;;;;;;;21.42;3.10;;;7.40;99.90;;;;;;5103321;28;20116;-72
2024/03/16 07:35:55;;;;;;;17.13;3.28;;;7.50;99.90;;;;;;5103215;28;20039;-70
2024/03/16 07:38:21;;;;;;;15.23;3.55;;;7.50;99.90;;;;;;5101473;28;20047;-72
2024/03/16 07:40:47;;;;;;;13.50;2.45;;;7.50;99.90;;;;;;5102937;28;20419;-70
2024/03/16 07:43:13;;;;;;;14.93;2.08;;;7.50;99.90;;;;;;5102698;28;20061;-70
2024/03/16 07:45:42;;;;;;;17.15;1.95;;;7.60;99.90;;;;;;5101207;28;20027;-71
2024/03/16 07:48:10;;;;;;;14.68;2.25;;;7.60;99.90;;;;;;5102232;28;20067;-70
2024/03/16 07:50:36;;;;;;;13.60;2.25;;;7.60;99.90;;;;;;5101162;28;20030;-71
2024/03/16 07:53:03;;;;;;;9.13;1.52;;;7.60;99.90;;;;;;5102705;28;20060;-74
2024/03/16 07:55:29;;;;;;;14.57;2.05;;;7.60;99.90;;;;;;5101594;28;20131;-71
2024/03/16 07:57:55;;;;;;;15.70;2.28;;;7.50;99.90;;;;;;5100694;28;20456;-71
2024/03/16 08:00:21;;;;;;;16.15;2.60;;;7.50;99.90;;;;;;5101367;28;20035;-71
2024/03/16 08:02:46;;;;;;;12.05;2.25;;;7.50;99.90;;;;;;5101978;28;20040;-72
2024/03/16 08:05:12;;;;;;;17.90;2.85;;;7.50;99.90;;;;;;5101647;28;20035;-70
2024/03/16 08:07:39;;;;;;;17.23;2.90;;;7.50;99.90;;;;;;5101699;28;20030;-72
2024/03/16 08:10:05;;;;;;;17.17;2.53;;;7.50;99.90;;;;;;5102286;28;20043;-72
2024/03/16 08:12:31;;;;;;;24.08;2.78;;;7.50;99.90;;;;;;5101485;28;20040;-71
2024/03/16 08:14:57;;;;;;;18.95;2.58;;;7.50;99.90;;;;;;5102614;28;20020;-71
2024/03/16 08:17:22;;;;;;;18.15;2.78;;;7.50;99.90;;;;;;5102470;28;20032;-71
2024/03/16 08:19:48;;;;;;;10.23;2.20;;;7.50;99.90;;;;;;5101760;28;20036;-73
2024/03/16 08:22:13;;;;;;;20.20;2.33;;;7.60;99.90;;;;;;5102251;28;20032;-70
2024/03/16 08:24:39;;;;;;;12.63;2.22;;;7.60;99.90;;;;;;5100037;28;20489;-71
2024/03/16 08:27:05;;;;;;;11.07;1.90;;;7.60;99.90;;;;;;5095830;28;20031;-71
2024/03/16 08:29:30;;;;;;;16.73;2.83;;;7.60;99.90;;;;;;5098369;28;20111;-71
2024/03/16 08:31:56;;;;;;;18.15;2.17;;;7.60;99.90;;;;;;5101015;28;20046;-71
2024/03/16 08:34:22;;;;;;;14.20;1.98;;;7.70;99.90;;;;;;5100899;28;20024;-72
2024/03/16 08:36:48;;;;;;;14.18;2.85;;;7.70;99.90;;;;;;5100412;28;20109;-72
2024/03/16 08:39:13;;;;;;;12.30;2.00;;;7.70;99.90;;;;;;5098942;28;20160;-72
2024/03/16 08:41:39;;;;;;;13.07;1.98;;;7.70;99.90;;;;;;5101579;28;20084;-71
2024/03/16 08:44:04;;;;;;;9.23;1.75;;;7.80;99.90;;;;;;5099589;28;20507;-71
2024/03/16 08:46:31;;;;;;;8.13;1.60;;;7.80;99.90;;;;;;5101400;28;20024;-70
2024/03/16 08:48:57;;;;;;;15.82;2.05;;;7.80;99.90;;;;;;5099105;28;20032;-74
2024/03/16 08:51:22;;;;;;;8.02;2.10;;;7.80;99.90;;;;;;5098666;28;20028;-70
2024/03/16 08:53:48;;;;;;;11.23;2.17;;;7.80;99.90;;;;;;5099290;28;20040;-73
2024/03/16 08:56:13;;;;;;;15.57;1.80;;;7.80;99.90;;;;;;5100773;28;20020;-74
2024/03/16 08:58:39;;;;;;;11.18;1.95;;;7.80;99.90;;;;;;5100585;28;20377;-72
2024/03/16 09:01:04;;;;;;;15.20;1.75;;;7.90;99.90;;;;;;5098433;28;20032;-71
2024/03/16 09:03:30;;;;;;;18.25;2.00;;;7.80;99.90;;;;;;5100903;28;20028;-69
2024/03/16 09:05:56;;;;;;;17.23;2.20;;;7.80;99.90;;;;;;5099963;28;20020;-71
2024/03/16 09:08:21;;;;;;;13.40;1.67;;;7.80;99.90;;;;;;5098695;28;20055;-71
2024/03/16 09:10:47;;;;;;;9.23;1.83;;;8.00;99.90;;;;;;5100309;28;20461;-70
2024/03/16 09:13:13;;;;;;;14.95;2.13;;;8.10;99.90;;;;;;5101304;28;20058;-70
2024/03/16 09:15:39;;;;;;;15.82;2.22;;;8.20;99.90;;;;;;5099498;28;20558;-71
2024/03/16 09:18:04;;;;;;;13.88;2.50;;;8.40;99.90;;;;;;5097183;28;20020;-73
2024/03/16 09:20:30;;;;;;;14.35;2.33;;;8.50;99.90;;;;;;5099992;28;20039;-71
2024/03/16 09:22:57;;;;;;;12.70;2.45;;;8.70;99.90;;;;;;5100561;28;20048;-72
2024/03/16 09:25:23;;;;;;;13.95;2.50;;;8.60;99.90;;;;;;5103185;28;20034;-72
2024/03/16 09:27:49;;;;;;;10.07;1.98;;;8.70;99.90;;;;;;5100295;28;20114;-72
2024/03/16 09:30:16;;;;;;;16.88;3.00;;;8.70;99.90;;;;;;5102323;28;20027;-70
2024/03/16 09:32:42;;;;;;;16.58;2.08;;;8.60;99.90;;;;;;5104008;28;20443;-71
2024/03/16 09:35:10;;;;;;;13.30;2.40;;;8.50;99.90;;;;;;5105187;28;20024;-72
2024/03/16 09:37:36;;;;;;;8.85;2.25;;;8.40;99.90;;;;;;5103609;28;20035;-72
2024/03/16 09:40:09;;;;;;;12.70;1.73;;;8.30;99.90;;;;;;5103832;28;20024;-73
2024/03/16 09:42:36;;;;;;;11.73;1.95;;;8.20;99.90;;;;;;5104917;28;20027;-70
2024/03/16 09:45:06;;;;;;;13.35;2.17;;;8.20;99.90;;;;;;5104882;28;20549;-71
2024/03/16 09:47:32;;;;;;;11.57;1.85;;;8.10;99.90;;;;;;5104714;28;20023;-70
2024/03/16 09:49:58;;;;;;;14.57;1.83;;;8.10;99.90;;;;;;5105105;28;20020;-72
2024/03/16 09:52:29;;;;;;;17.40;2.17;;;7.90;99.90;;;;;;5105028;28;20043;-74
2024/03/16 09:54:55;;;;;;;10.00;1.52;;;7.80;99.90;;;;;;5104957;28;20024;-70
2024/03/16 09:57:23;;;;;;;11.93;2.00;;;7.80;99.90;;;;;;5104182;28;20012;-73
2024/03/16 09:59:48;;;;;;;13.68;2.55;;;7.80;99.90;;;;;;5104974;28;20485;-71
2024/03/16 10:02:21;;;;;;;13.82;2.00;;;7.80;99.90;;;;;;5103503;28;20028;-73
2024/03/16 10:04:48;;;;;;;8.85;1.70;;;7.90;99.90;;;;;;5103499;28;20028;-73
2024/03/16 10:07:14;;;;;;;13.52;1.85;;;8.10;99.90;;;;;;5103932;28;20047;-74
2024/03/16 10:10:10;;;;;;;10.52;1.75;;;8.40;99.90;;;;;;5102455;28;20039;-72
2024/03/16 10:12:38;;;;;;;10.43;1.95;;;8.80;99.90;;;;;;5102667;28;20405;-70
2024/03/16 10:15:19;;;;;;;12.75;1.50;;;9.00;99.90;;;;;;5104470;28;20023;-70
2024/03/16 10:17:46;;;;;;;11.00;1.75;;;9.00;99.90;;;;;;5104081;28;20032;-72
2024/03/16 10:20:16;;;;;;;14.93;2.00;;;9.00;99.90;;;;;;5104451;28;20035;-71
2024/03/16 10:22:45;;;;;;;9.57;1.95;;;9.20;99.90;;;;;;5103815;28;20020;-73
2024/03/16 10:25:11;;;;;;;10.20;1.90;;;9.30;99.90;;;;;;5103701;28;20053;-72
2024/03/16 10:27:38;;;;;;;10.18;1.77;;;9.30;99.90;;;;;;5104051;28;20016;-74
2024/03/16 10:30:11;;;;;;;9.85;1.75;;;9.10;99.90;;;;;;5104074;28;20016;-71
2024/03/16 10:32:41;;;;;;;8.20;1.42;;;8.80;99.90;;;;;;5103796;28;20032;-71
2024/03/16 10:35:14;;;;;;;9.85;1.80;;;8.60;99.90;;;;;;5102915;28;20035;-71
2024/03/16 10:37:43;;;;;;;14.40;2.10;;;8.50;99.90;;;;;;5103821;28;20036;-70
2024/03/16 10:40:14;;;;;;;11.95;1.55;;;8.40;99.90;;;;;;5104090;28;20036;-70
2024/03/16 10:42:50;;;;;;;8.10;1.55;;;8.30;99.90;;;;;;5102802;28;20024;-70
2024/03/16 10:45:17;;;;;;;8.55;1.70;;;8.40;99.90;;;;;;5101436;28;20035;-73
2024/03/16 10:47:55;;;;;;;10.63;1.90;;;8.70;99.90;;;;;;5103948;28;21410;-73
2024/03/16 10:50:25;;;;;;;7.90;1.55;;;9.20;99.90;;;;;;5101786;28;20032;-71
2024/03/16 10:52:52;;;;;;;10.50;1.85;;;9.60;99.90;;;;;;5102584;28;20047;-72
2024/03/16 10:55:24;;;;;;;11.10;1.73;;;9.90;99.90;;;;;;5103323;28;20012;-72
2024/03/16 10:57:53;;;;;;;15.00;1.88;;;10.20;99.90;;;;;;5102080;28;20453;-73
2024/03/16 11:00:34;;;;;;;13.18;1.90;;;10.40;99.90;;;;;;5103403;28;20028;-72
2024/03/16 11:03:01;;;;;;;7.07;1.45;;;10.80;99.90;;;;;;5102496;28;20032;-72
2024/03/16 11:05:35;;;;;;;9.52;1.73;;;11.00;99.90;;;;;;5101179;28;20028;-71
2024/03/16 11:08:11;;;;;;;10.40;1.95;;;11.20;99.90;;;;;;5102717;28;20025;-71
2024/03/16 11:10:38;;;;;;;8.25;1.80;;;11.30;99.90;;;;;;5103080;28;20143;-73
2024/03/16 11:13:17;;;;;;;15.70;2.10;;;11.40;99.90;;;;;;5101751;28;20059;-73
2024/03/16 11:15:50;;;;;;;13.48;1.83;;;11.60;99.90;;;;;;5101342;28;20059;-73
2024/03/16 11:18:15;;;;;;;15.00;2.38;;;11.30;99.90;;;;;;5103398;28;20024;-73
2024/03/16 11:20:48;;;;;;;12.48;1.88;;;11.10;99.90;;;;;;5103017;28;20028;-72
2024/03/16 11:23:22;;;;;;;9.52;1.70;;;10.90;99.90;;;;;;5102872;28;20020;-74
2024/03/16 11:25:48;;;;;;;10.80;2.03;;;10.60;99.90;;;;;;5103307;28;20024;-74
2024/03/16 11:28:15;;;;;;;11.57;1.83;;;10.70;99.90;;;;;;5101381;28;20105;-70
2024/03/16 11:30:40;;;;;;;17.48;2.42;;;11.00;99.90;;;;;;5102300;28;20031;-72
2024/03/16 11:33:21;;;;;;;11.52;1.98;;;11.20;99.90;;;;;;5103630;28;21509;-72
2024/03/16 11:35:47;;;;;;;11.57;2.08;;;11.30;99.90;;;;;;5101001;28;20480;-72
2024/03/16 11:38:18;;;;;;;10.75;1.88;;;11.50;99.90;;;;;;5101217;28;20046;-72
2024/03/16 11:40:47;;;;;;;16.00;2.35;;;11.30;99.90;;;;;;5101763;28;20028;-71
2024/03/16 11:43:13;;;;;;;15.60;2.00;;;11.20;99.90;;;;;;5102038;28;20016;-73
2024/03/16 11:45:46;;;;;;;10.82;2.03;;;11.10;99.90;;;;;;5103017;28;20096;-72
2024/03/16 11:48:12;;;;;;;11.27;1.77;;;11.00;99.90;;;;;;5101844;28;20020;-71
2024/03/16 11:50:37;;;;;;;12.18;2.10;;;10.80;99.90;;;;;;5103144;28;20024;-73
2024/03/16 11:53:04;;;;;;;14.05;2.30;;;10.60;99.90;;;;;;5102092;28;20034;-73
2024/03/16 11:55:32;;;;;;;15.82;2.13;;;10.40;99.90;;;;;;5102250;28;20041;-69
2024/03/16 11:58:03;;;;;;;8.00;1.70;;;10.60;99.90;;;;;;5102620;28;20024;-72
2024/03/16 12:00:29;;;;;;;14.40;2.30;;;11.00;99.90;;;;;;5103096;28;20016;-73
2024/03/16 12:02:57;;;;;;;15.25;2.47;;;11.50;99.90;;;;;;5103050;28;20036;-71
2024/03/16 12:05:23;;;;;;;15.75;2.70;;;11.50;99.90;;;;;;5103179;28;20483;-70
2024/03/16 12:07:49;;;;;;;13.98;2.60;;;11.30;99.90;;;;;;5102503;28;20073;-73
2024/03/16 12:10:15;;;;;;;11.57;1.92;;;11.00;99.90;;;;;;5101960;28;20073;-72
2024/03/16 12:12:41;;;;;;;13.93;2.30;;;10.80;99.90;;;;;;5102612;28;20036;-72
2024/03/16 12:15:25;;;;;;;16.25;2.40;;;11.20;99.90;;;;;;5101024;28;20106;-72
2024/03/16 12:17:52;;;;;;;16.10;2.63;;;12.00;99.90;;;;;;5101817;28;20032;-72
2024/03/16 12:20:18;;;;;;;15.25;2.83;;;12.40;99.90;;;;;;5102452;28;20126;-73
2024/03/16 12:22:44;;;;;;;12.98;3.13;;;12.70;99.90;;;;;;5100504;28;20020;-73
2024/03/16 12:25:10;;;;;;;18.35;3.75;;;12.90;99.90;;;;;;5100659;28;20036;-71
2024/03/16 12:27:41;;;;;;;21.60;5.40;;;13.20;99.90;;;;;;5102354;28;20032;-72
2024/03/16 12:30:11;;;;;;;16.63;2.50;;;13.30;99.90;;;;;;5102042;28;20027;-72
2024/03/16 12:32:36;;;;;;;12.65;2.65;;;13.80;99.90;;;;;;5101430;28;20036;-72
2024/03/16 12:35:04;;;;;;;11.70;2.05;;;14.20;99.90;;;;;;5100784;28;20084;-72
2024/03/16 12:37:29;;;;;;;15.02;2.40;;;14.20;99.90;;;;;;5102003;28;20471;-76